createdAt,value
2023-05-09T00:01:45.309Z,44.81
2023-05-09T00:03:48.719Z,44.68
2023-05-09T00:05:52.137Z,44.69
2023-05-09T00:07:55.298Z,44.80
2023-05-09T00:09:58.698Z,44.90
2023-05-09T00:12:02.589Z,44.78
2023-05-09T00:14:06.738Z,44.89
2023-05-09T00:16:10.593Z,44.79
2023-05-09T00:18:15.347Z,44.87
2023-05-09T00:20:18.693Z,44.96
2023-05-09T00:22:22.337Z,45.17
2023-05-09T00:24:25.523Z,45.42
2023-05-09T00:26:28.890Z,45.57
2023-05-09T00:28:32.380Z,45.60
2023-05-09T00:30:35.608Z,45.81
2023-05-09T00:32:40.308Z,45.74
2023-05-09T00:34:44.936Z,45.75
2023-05-09T00:36:48.359Z,45.78
2023-05-09T00:38:51.585Z,45.77
2023-05-09T00:40:54.751Z,46.17
2023-05-09T00:43:00.526Z,46.23
2023-05-09T00:45:03.966Z,46.08
2023-05-09T00:47:07.748Z,46.03
2023-05-09T00:49:12.390Z,46.08
2023-05-09T00:51:17.772Z,46.20
2023-05-09T00:53:21.081Z,46.55
2023-05-09T00:55:24.692Z,46.77
2023-05-09T00:57:27.838Z,46.58
2023-05-09T00:59:31.085Z,46.73
2023-05-09T01:01:34.290Z,46.76
2023-05-09T01:03:41.261Z,46.80
2023-05-09T01:05:53.682Z,46.48
2023-05-09T01:08:03.683Z,46.62
2023-05-09T01:10:15.292Z,46.62
2023-05-09T01:12:27.564Z,46.71
2023-05-09T01:14:39.036Z,46.87
2023-05-09T01:16:45.118Z,46.75
2023-05-09T01:18:56.454Z,46.73
2023-05-09T01:21:08.872Z,46.92
2023-05-09T01:23:36.254Z,46.96
2023-05-09T01:25:57.062Z,46.99
2023-05-09T01:28:15.620Z,47.29
2023-05-09T01:30:21.563Z,47.35
2023-05-09T01:32:27.977Z,47.32
2023-05-09T01:34:33.678Z,47.50
2023-05-09T01:36:39.300Z,47.44
2023-05-09T01:38:45.380Z,47.64
2023-05-09T01:40:52.971Z,47.72
2023-05-09T01:42:59.572Z,47.77
2023-05-09T01:45:05.891Z,47.89
2023-05-09T01:47:12.374Z,47.99
2023-05-09T01:49:16.939Z,48.22
2023-05-09T01:51:21.411Z,48.10
2023-05-09T01:53:26.889Z,48.13
2023-05-09T01:55:34.198Z,48.44
2023-05-09T01:57:39.567Z,48.49
2023-05-09T01:59:47.424Z,48.42
2023-05-09T02:01:51.216Z,48.57
2023-05-09T02:03:56.571Z,48.75
2023-05-09T02:06:00.409Z,48.71
2023-05-09T02:08:03.947Z,48.90
2023-05-09T02:10:11.070Z,48.97
2023-05-09T02:12:14.444Z,49.21
2023-05-09T02:14:17.630Z,49.40
2023-05-09T02:16:21.224Z,49.44
2023-05-09T02:18:24.655Z,49.31
2023-05-09T02:20:29.227Z,49.67
2023-05-09T02:22:32.774Z,49.93
2023-05-09T02:24:36.522Z,49.85
2023-05-09T02:26:40.489Z,49.99
2023-05-09T02:28:46.467Z,50.05
2023-05-09T02:30:51.593Z,50.17
2023-05-09T02:33:00.564Z,50.36
2023-05-09T02:35:06.136Z,50.40
2023-05-09T02:37:12.054Z,50.57
2023-05-09T02:39:16.152Z,50.62
2023-05-09T02:41:19.458Z,50.73
2023-05-09T02:43:24.078Z,50.81
2023-05-09T02:45:27.626Z,50.93
2023-05-09T02:47:31.376Z,50.93
2023-05-09T02:49:35.272Z,50.92
2023-05-09T02:51:40.035Z,51.14
2023-05-09T02:53:44.882Z,51.17
2023-05-09T02:55:48.657Z,51.33
2023-05-09T02:57:58.932Z,51.61
2023-05-09T03:00:09.842Z,51.51
2023-05-09T03:02:13.066Z,51.55
2023-05-09T03:04:16.597Z,51.72
2023-05-09T03:06:19.836Z,51.82
2023-05-09T03:08:23.077Z,52.01
2023-05-09T03:10:27.740Z,52.01
2023-05-09T03:12:31.237Z,52.05
2023-05-09T03:14:34.525Z,52.26
2023-05-09T03:16:39.154Z,52.20
2023-05-09T03:18:47.281Z,52.33
2023-05-09T03:20:50.671Z,52.53
2023-05-09T03:22:54.032Z,52.43
2023-05-09T03:24:57.612Z,52.50
2023-05-09T03:27:02.269Z,52.38
2023-05-09T03:29:05.815Z,52.71
2023-05-09T03:31:09.607Z,52.89
2023-05-09T03:33:12.852Z,52.79
2023-05-09T03:35:16.290Z,53.17
2023-05-09T03:37:20.221Z,53.14
2023-05-09T03:39:23.626Z,53.22
2023-05-09T03:41:31.116Z,53.27
2023-05-09T03:43:35.995Z,53.32
2023-05-09T03:45:39.577Z,53.31
2023-05-09T03:47:44.947Z,53.34
2023-05-09T03:49:48.859Z,53.61
2023-05-09T03:51:55.183Z,53.54
2023-05-09T03:53:58.371Z,53.59
2023-05-09T03:56:01.770Z,53.80
2023-05-09T03:58:08.129Z,53.70
2023-05-09T04:00:16.478Z,53.76
2023-05-09T04:02:28.245Z,53.87
2023-05-09T04:04:31.622Z,54.01
2023-05-09T04:06:35.623Z,54.16
2023-05-09T04:08:40.826Z,54.40
2023-05-09T04:10:44.632Z,54.29
2023-05-09T04:12:47.886Z,54.39
2023-05-09T04:14:53.107Z,54.51
2023-05-09T04:16:58.212Z,54.63
2023-05-09T04:19:01.539Z,54.58
2023-05-09T04:21:05.325Z,54.74
2023-05-09T04:23:08.740Z,54.74
2023-05-09T04:25:14.379Z,54.61
2023-05-09T04:27:18.094Z,54.92
2023-05-09T04:29:21.344Z,54.98
2023-05-09T04:31:29.355Z,54.98
2023-05-09T04:33:34.706Z,55.03
2023-05-09T04:35:41.348Z,55.04
2023-05-09T04:37:44.842Z,55.13
2023-05-09T04:39:48.106Z,55.27
2023-05-09T04:41:57.045Z,55.36
2023-05-09T04:44:00.892Z,55.18
2023-05-09T04:46:04.244Z,55.38
2023-05-09T04:48:08.974Z,55.55
2023-05-09T04:50:14.511Z,55.44
2023-05-09T04:52:17.829Z,55.49
2023-05-09T04:54:21.448Z,55.55
2023-05-09T04:56:28.300Z,55.50
2023-05-09T04:58:33.314Z,55.79
2023-05-09T05:00:36.953Z,55.89
2023-05-09T05:02:40.480Z,55.84
2023-05-09T05:04:43.988Z,55.55
2023-05-09T05:06:48.889Z,55.69
2023-05-09T05:08:52.268Z,55.79
2023-05-09T05:10:55.480Z,55.92
2023-05-09T05:12:59.224Z,55.86
2023-05-09T05:15:02.544Z,55.82
2023-05-09T05:17:06.564Z,55.63
2023-05-09T05:19:10.015Z,55.64
2023-05-09T05:21:16.446Z,55.64
2023-05-09T05:23:22.107Z,55.86
2023-05-09T05:25:28.829Z,55.89
2023-05-09T05:27:33.279Z,55.86
2023-05-09T05:29:36.550Z,55.84
2023-05-09T05:31:39.914Z,55.83
2023-05-09T05:33:43.262Z,55.71
2023-05-09T05:35:46.803Z,55.71
2023-05-09T05:37:50.442Z,55.75
2023-05-09T05:39:55.572Z,55.53
2023-05-09T05:42:00.187Z,55.61
2023-05-09T05:44:03.685Z,55.64
2023-05-09T05:46:07.172Z,55.93
2023-05-09T05:48:11.545Z,55.70
2023-05-09T05:50:14.976Z,55.68
2023-05-09T05:52:18.963Z,55.71
2023-05-09T05:54:22.249Z,55.50
2023-05-09T05:56:27.253Z,55.41
2023-05-09T05:58:31.603Z,55.37
2023-05-09T06:00:34.876Z,55.49
2023-05-09T06:02:44.570Z,55.33
2023-05-09T06:04:55.943Z,55.42
2023-05-09T06:06:59.978Z,55.17
2023-05-09T06:09:03.284Z,55.04
2023-05-09T06:11:07.183Z,54.62
2023-05-09T06:13:11.947Z,54.68
2023-05-09T06:15:19.128Z,54.80
2023-05-09T06:17:25.652Z,54.63
2023-05-09T06:19:28.881Z,54.69
2023-05-09T06:21:34.234Z,54.79
2023-05-09T06:23:40.496Z,55.00
2023-05-09T06:25:48.989Z,54.91
2023-05-09T06:27:52.264Z,54.80
2023-05-09T06:29:56.896Z,54.92
2023-05-09T06:32:00.202Z,54.86
2023-05-09T06:34:03.480Z,54.55
2023-05-09T06:36:07.346Z,54.66
2023-05-09T06:38:10.664Z,54.78
2023-05-09T06:40:14.026Z,54.49
2023-05-09T06:42:17.349Z,54.64
2023-05-09T06:44:20.988Z,54.52
2023-05-09T06:46:25.842Z,54.53
2023-05-09T06:48:29.129Z,54.42
2023-05-09T06:50:33.046Z,54.18
2023-05-09T06:52:36.407Z,54.20
2023-05-09T06:54:39.698Z,54.11
2023-05-09T06:56:42.912Z,53.94
2023-05-09T06:58:46.098Z,53.85
2023-05-09T07:00:49.572Z,53.82
2023-05-09T07:02:54.365Z,53.64
2023-05-09T07:04:57.711Z,53.58
2023-05-09T07:07:00.967Z,53.43
2023-05-09T07:09:05.357Z,53.42
2023-05-09T07:11:08.609Z,53.03
2023-05-09T07:13:12.223Z,52.52
2023-05-09T07:15:20.546Z,52.34
2023-05-09T07:17:30.099Z,51.98
2023-05-09T07:19:34.749Z,51.83
2023-05-09T07:21:37.941Z,51.75
2023-05-09T07:23:41.263Z,51.61
2023-05-09T07:25:45.224Z,51.35
2023-05-09T07:27:48.454Z,51.26
2023-05-09T07:29:52.704Z,50.85
2023-05-09T07:31:56.031Z,50.98
2023-05-09T07:33:59.220Z,50.83
2023-05-09T07:36:03.925Z,50.58
2023-05-09T07:38:07.615Z,50.73
2023-05-09T07:40:11.722Z,50.35
2023-05-09T07:42:15.285Z,50.60
2023-05-09T07:44:18.521Z,50.37
2023-05-09T07:46:21.846Z,50.46
2023-05-09T07:48:25.213Z,50.10
2023-05-09T07:50:28.478Z,49.99
2023-05-09T07:52:33.171Z,49.89
2023-05-09T07:54:36.455Z,49.43
2023-05-09T07:56:39.790Z,48.92
2023-05-09T07:58:42.996Z,48.83
2023-05-09T08:00:46.276Z,48.62
2023-05-09T08:02:49.695Z,48.23
2023-05-09T08:04:53.125Z,47.86
2023-05-09T08:06:56.288Z,48.04
2023-05-09T08:09:00.968Z,47.80
2023-05-09T08:11:06.188Z,48.09
2023-05-09T08:13:09.579Z,47.61
2023-05-09T08:15:13.240Z,47.53
2023-05-09T08:17:19.500Z,47.70
2023-05-09T08:19:24.412Z,47.21
2023-05-09T08:21:27.716Z,46.52
2023-05-09T08:23:31.226Z,46.68
2023-05-09T08:25:35.917Z,47.32
2023-05-09T08:27:39.317Z,47.02
2023-05-09T08:29:43.000Z,46.69
2023-05-09T08:31:46.306Z,46.93
2023-05-09T08:33:49.574Z,46.35
2023-05-09T08:35:53.226Z,45.80
2023-05-09T08:37:56.421Z,45.66
2023-05-09T08:39:59.621Z,45.36
2023-05-09T08:42:04.482Z,45.80
2023-05-09T08:44:08.060Z,45.94
2023-05-09T08:46:12.913Z,45.28
2023-05-09T08:48:17.268Z,44.81
2023-05-09T08:50:21.616Z,45.12
2023-05-09T08:52:25.136Z,44.93
2023-05-09T08:54:28.857Z,44.23
2023-05-09T08:56:32.485Z,44.44
2023-05-09T08:58:40.081Z,43.60
2023-05-09T09:00:43.467Z,43.77
2023-05-09T09:02:47.192Z,42.95
2023-05-09T09:04:50.405Z,43.02
2023-05-09T09:06:55.551Z,43.17
2023-05-09T09:09:00.554Z,43.90
2023-05-09T09:11:04.372Z,43.60
2023-05-09T09:13:08.703Z,44.00
2023-05-09T09:15:18.128Z,43.83
2023-05-09T09:17:28.018Z,43.75
2023-05-09T09:19:32.611Z,44.12
2023-05-09T09:21:35.910Z,43.94
2023-05-09T09:23:41.303Z,44.40
2023-05-09T09:25:47.023Z,44.05
2023-05-09T09:27:50.281Z,44.84
2023-05-09T09:29:53.471Z,45.24
2023-05-09T09:31:58.114Z,44.65
2023-05-09T09:34:02.695Z,43.93
2023-05-09T09:36:07.319Z,43.76
2023-05-09T09:38:10.550Z,43.59
2023-05-09T09:40:14.645Z,42.97
2023-05-09T09:42:18.249Z,42.55
2023-05-09T09:44:23.228Z,41.98
2023-05-09T09:46:26.543Z,41.32
2023-05-09T09:48:33.863Z,41.63
2023-05-09T09:50:37.287Z,40.87
2023-05-09T09:52:45.186Z,39.94
2023-05-09T09:54:48.775Z,39.62
2023-05-09T09:56:54.569Z,38.85
2023-05-09T09:59:10.650Z,39.02
2023-05-09T10:01:16.478Z,38.26
2023-05-09T10:03:19.828Z,38.32
2023-05-09T10:05:26.227Z,38.25
2023-05-09T10:07:35.353Z,38.11
2023-05-09T10:09:38.950Z,37.97
2023-05-09T10:11:42.341Z,37.18
2023-05-09T10:13:46.518Z,36.90
2023-05-09T10:15:54.018Z,36.64
2023-05-09T10:17:59.549Z,36.50
2023-05-09T10:20:05.957Z,36.22
2023-05-09T10:22:13.307Z,36.13
2023-05-09T10:24:18.213Z,35.54
2023-05-09T10:26:27.679Z,35.20
2023-05-09T10:28:34.649Z,35.58
2023-05-09T10:30:48.900Z,35.59
2023-05-09T10:32:55.255Z,35.89
2023-05-09T10:35:04.500Z,35.86
2023-05-09T10:37:11.197Z,35.55
2023-05-09T10:39:14.892Z,35.35
2023-05-09T10:41:18.816Z,35.92
2023-05-09T10:43:24.106Z,35.30
2023-05-09T10:45:27.896Z,34.41
2023-05-09T10:47:33.342Z,34.54
2023-05-09T10:49:37.397Z,33.70
2023-05-09T10:51:40.925Z,33.66
2023-05-09T10:53:46.601Z,33.25
2023-05-09T10:55:52.269Z,32.93
2023-05-09T10:57:55.700Z,33.09
2023-05-09T11:00:00.217Z,32.63
2023-05-09T11:02:04.596Z,32.83
2023-05-09T11:04:11.491Z,33.04
2023-05-09T11:06:45.347Z,32.63
2023-05-09T11:08:49.908Z,33.12
2023-05-09T11:10:53.830Z,32.98
2023-05-09T11:12:58.710Z,32.71
2023-05-09T11:15:07.821Z,32.43
2023-05-09T11:17:13.344Z,32.56
2023-05-09T11:19:35.470Z,32.77
2023-05-09T11:21:38.709Z,32.80
2023-05-09T11:23:42.033Z,33.53
2023-05-09T11:25:48.398Z,32.60
2023-05-09T11:27:52.172Z,32.96
2023-05-09T11:29:56.843Z,32.16
2023-05-09T11:32:09.206Z,31.31
2023-05-09T11:34:13.285Z,31.29
2023-05-09T11:36:18.741Z,31.35
2023-05-09T11:38:23.079Z,31.01
2023-05-09T11:40:26.911Z,30.22
2023-05-09T11:42:32.714Z,31.11
2023-05-09T11:44:36.368Z,30.98
2023-05-09T11:46:39.623Z,30.10
2023-05-09T11:48:43.065Z,29.23
2023-05-09T11:50:49.630Z,29.41
2023-05-09T11:52:52.893Z,29.91
2023-05-09T11:54:56.124Z,30.65
2023-05-09T11:57:00.912Z,31.27
2023-05-09T11:59:05.629Z,29.95
2023-05-09T12:01:10.028Z,29.66
2023-05-09T12:03:15.297Z,29.32
2023-05-09T12:05:20.330Z,29.93
2023-05-09T12:07:23.527Z,30.64
2023-05-09T12:09:27.580Z,30.25
2023-05-09T12:11:35.103Z,30.95
2023-05-09T12:13:46.786Z,30.86
2023-05-09T12:15:52.276Z,30.19
2023-05-09T12:18:13.189Z,30.42
2023-05-09T12:20:16.526Z,30.54
2023-05-09T12:22:21.309Z,31.05
2023-05-09T12:24:26.582Z,30.13
2023-05-09T12:26:30.037Z,29.33
2023-05-09T12:28:33.862Z,29.25
2023-05-09T12:30:37.426Z,29.50
2023-05-09T12:32:42.943Z,29.72
2023-05-09T12:34:48.428Z,29.16
2023-05-09T12:36:51.975Z,29.80
2023-05-09T12:38:55.618Z,29.29
2023-05-09T12:41:03.945Z,28.99
2023-05-09T12:43:08.652Z,29.61
2023-05-09T12:45:13.413Z,29.09
2023-05-09T12:47:16.828Z,29.11
2023-05-09T12:49:24.500Z,29.47
2023-05-09T12:51:27.792Z,29.02
2023-05-09T12:53:32.161Z,28.69
2023-05-09T12:55:40.636Z,29.72
2023-05-09T12:57:44.143Z,28.91
2023-05-09T12:59:47.468Z,28.76
2023-05-09T13:01:55.005Z,28.41
2023-05-09T13:04:03.654Z,29.23
2023-05-09T13:06:13.926Z,29.14
2023-05-09T13:08:17.116Z,28.92
2023-05-09T13:10:22.453Z,29.26
2023-05-09T13:12:26.430Z,28.78
2023-05-09T13:14:29.688Z,28.66
2023-05-09T13:16:33.084Z,28.58
2023-05-09T13:18:36.379Z,28.04
2023-05-09T13:20:39.818Z,28.47
2023-05-09T13:22:45.069Z,28.67
2023-05-09T13:24:48.294Z,28.11
2023-05-09T13:26:51.480Z,27.83
2023-05-09T13:28:54.834Z,28.80
2023-05-09T13:30:59.297Z,28.42
2023-05-09T13:33:16.557Z,28.08
2023-05-09T13:35:20.686Z,28.10
2023-05-09T13:37:23.881Z,27.85
2023-05-09T13:39:28.472Z,27.85
2023-05-09T13:41:33.492Z,27.32
2023-05-09T13:43:37.669Z,27.16
2023-05-09T13:45:41.009Z,27.26
2023-05-09T13:47:44.298Z,27.50
2023-05-09T13:49:47.520Z,28.11
2023-05-09T13:51:50.871Z,27.55
2023-05-09T13:53:54.046Z,27.22
2023-05-09T13:55:58.784Z,26.77
2023-05-09T13:58:01.990Z,27.08
2023-05-09T14:00:11.347Z,26.49
2023-05-09T14:02:18.838Z,25.87
2023-05-09T14:04:21.979Z,26.63
2023-05-09T14:06:25.250Z,26.56
2023-05-09T14:08:28.451Z,26.57
2023-05-09T14:10:31.741Z,26.81
2023-05-09T14:12:36.384Z,26.53
2023-05-09T14:14:39.691Z,26.72
2023-05-09T14:16:42.924Z,26.92
2023-05-09T14:18:46.135Z,26.42
2023-05-09T14:20:49.421Z,25.78
2023-05-09T14:22:55.090Z,26.32
2023-05-09T14:24:58.611Z,26.06
2023-05-09T14:27:02.062Z,25.53
2023-05-09T14:29:07.207Z,25.16
2023-05-09T14:31:10.598Z,25.13
2023-05-09T14:33:14.544Z,24.23
2023-05-09T14:35:19.297Z,24.21
2023-05-09T14:37:22.617Z,24.32
2023-05-09T14:39:26.492Z,24.32
2023-05-09T14:41:30.255Z,24.16
2023-05-09T14:43:33.649Z,23.74
2023-05-09T14:45:38.634Z,23.82
2023-05-09T14:47:42.369Z,24.48
2023-05-09T14:49:45.758Z,23.95
2023-05-09T14:51:49.044Z,24.19
2023-05-09T14:53:53.442Z,24.14
2023-05-09T14:55:57.466Z,24.12
2023-05-09T14:58:00.919Z,24.23
2023-05-09T15:00:16.580Z,23.82
2023-05-09T15:02:24.645Z,23.81
2023-05-09T15:04:30.647Z,23.84
2023-05-09T15:06:34.218Z,24.16
2023-05-09T15:08:37.437Z,23.51
2023-05-09T15:10:41.100Z,23.23
2023-05-09T15:12:45.160Z,23.72
2023-05-09T15:14:48.958Z,23.35
2023-05-09T15:16:54.081Z,23.13
2023-05-09T15:18:59.849Z,23.76
2023-05-09T15:21:03.161Z,23.47
2023-05-09T15:23:08.045Z,22.95
2023-05-09T15:25:12.011Z,22.81
2023-05-09T15:27:15.450Z,22.76
2023-05-09T15:29:19.235Z,22.72
2023-05-09T15:31:24.100Z,22.94
2023-05-09T15:33:28.631Z,22.09
2023-05-09T15:35:33.690Z,22.13
2023-05-09T15:37:37.825Z,22.37
2023-05-09T15:39:43.516Z,22.54
2023-05-09T15:41:47.090Z,22.32
2023-05-09T15:43:50.444Z,22.21
2023-05-09T15:45:53.723Z,21.94
2023-05-09T15:47:57.093Z,21.75
2023-05-09T15:50:00.517Z,21.84
2023-05-09T15:52:06.133Z,22.30
2023-05-09T15:54:09.954Z,22.09
2023-05-09T15:56:13.453Z,22.16
2023-05-09T15:58:16.682Z,21.90
2023-05-09T16:00:20.502Z,21.82
2023-05-09T16:02:24.097Z,22.06
2023-05-09T16:04:27.770Z,22.23
2023-05-09T16:06:33.046Z,22.56
2023-05-09T16:08:38.033Z,22.71
2023-05-09T16:10:41.632Z,22.94
2023-05-09T16:12:44.922Z,22.67
2023-05-09T16:14:48.213Z,22.79
2023-05-09T16:16:53.547Z,23.52
2023-05-09T16:18:57.166Z,23.55
2023-05-09T16:21:00.542Z,23.59
2023-05-09T16:23:04.448Z,23.57
2023-05-09T16:25:10.461Z,23.97
2023-05-09T16:27:14.432Z,24.01
2023-05-09T16:29:17.784Z,24.00
2023-05-09T16:31:21.648Z,24.05
2023-05-09T16:33:25.121Z,24.30
2023-05-09T16:35:28.436Z,24.46
2023-05-09T16:37:33.413Z,24.36
2023-05-09T16:39:38.042Z,24.40
2023-05-09T16:41:42.721Z,24.68
2023-05-09T16:43:45.987Z,24.88
2023-05-09T16:45:49.754Z,25.23
2023-05-09T16:47:54.163Z,25.44
2023-05-09T16:49:57.455Z,25.31
2023-05-09T16:52:00.714Z,25.84
2023-05-09T16:54:04.047Z,25.55
2023-05-09T16:56:07.983Z,26.19
2023-05-09T16:58:12.768Z,25.77
2023-05-09T17:00:17.017Z,25.79
2023-05-09T17:02:20.581Z,25.85
2023-05-09T17:04:24.116Z,26.46
2023-05-09T17:06:28.085Z,26.59
2023-05-09T17:08:31.542Z,26.81
2023-05-09T17:10:37.228Z,26.78
2023-05-09T17:12:42.119Z,26.92
2023-05-09T17:14:49.733Z,26.88
2023-05-09T17:16:53.608Z,27.09
2023-05-09T17:18:57.064Z,27.19
2023-05-09T17:21:00.452Z,27.43
2023-05-09T17:23:04.115Z,26.88
2023-05-09T17:25:08.187Z,27.29
2023-05-09T17:27:11.973Z,27.33
2023-05-09T17:29:15.340Z,27.14
2023-05-09T17:31:20.115Z,27.10
2023-05-09T17:33:23.421Z,27.58
2023-05-09T17:35:27.071Z,27.33
2023-05-09T17:37:30.443Z,27.53
2023-05-09T17:39:34.694Z,27.55
2023-05-09T17:41:38.702Z,27.54
2023-05-09T17:43:42.415Z,27.69
2023-05-09T17:45:47.128Z,27.77
2023-05-09T17:47:52.336Z,28.32
2023-05-09T17:49:55.706Z,28.56
2023-05-09T17:51:59.969Z,28.45
2023-05-09T17:54:04.091Z,28.71
2023-05-09T17:56:07.686Z,28.96
2023-05-09T17:58:11.150Z,29.04
2023-05-09T18:00:16.761Z,28.97
2023-05-09T18:02:26.536Z,29.30
2023-05-09T18:04:32.878Z,29.01
2023-05-09T18:06:36.986Z,29.19
2023-05-09T18:08:40.380Z,29.19
2023-05-09T18:10:43.809Z,28.81
2023-05-09T18:12:47.524Z,29.37
2023-05-09T18:14:52.301Z,29.39
2023-05-09T18:16:55.586Z,29.04
2023-05-09T18:18:59.332Z,28.93
2023-05-09T18:21:05.407Z,29.55
2023-05-09T18:23:08.969Z,28.98
2023-05-09T18:25:12.639Z,29.65
2023-05-09T18:27:15.898Z,29.63
2023-05-09T18:29:19.608Z,29.97
2023-05-09T18:31:23.060Z,29.74
2023-05-09T18:33:28.097Z,30.04
2023-05-09T18:35:31.707Z,29.84
2023-05-09T18:37:36.942Z,30.09
2023-05-09T18:39:40.290Z,29.98
2023-05-09T18:41:44.041Z,30.05
2023-05-09T18:43:47.346Z,30.12
2023-05-09T18:45:51.915Z,30.61
2023-05-09T18:47:55.344Z,30.23
2023-05-09T18:50:00.978Z,30.88
2023-05-09T18:52:06.044Z,30.75
2023-05-09T18:54:11.072Z,31.04
2023-05-09T18:56:14.626Z,31.37
2023-05-09T18:58:18.031Z,31.10
2023-05-09T19:00:21.523Z,31.68
2023-05-09T19:02:25.454Z,31.37
2023-05-09T19:04:29.180Z,31.67
2023-05-09T19:06:32.989Z,31.60
2023-05-09T19:08:36.338Z,31.77
2023-05-09T19:10:41.168Z,31.89
2023-05-09T19:12:44.669Z,31.60
2023-05-09T19:14:48.229Z,32.00
2023-05-09T19:16:51.476Z,32.18
2023-05-09T19:18:57.038Z,32.79
2023-05-09T19:21:01.355Z,32.68
2023-05-09T19:23:06.043Z,32.79
2023-05-09T19:25:10.480Z,32.28
2023-05-09T19:27:15.103Z,32.90
2023-05-09T19:29:18.381Z,32.69
2023-05-09T19:31:21.696Z,32.90
2023-05-09T19:33:25.087Z,32.82
2023-05-09T19:35:28.476Z,32.81
2023-05-09T19:37:31.747Z,33.06
2023-05-09T19:39:35.148Z,32.65
2023-05-09T19:41:38.472Z,32.79
2023-05-09T19:43:43.199Z,33.05
2023-05-09T19:45:46.495Z,32.88
2023-05-09T19:47:49.979Z,33.20
2023-05-09T19:49:53.609Z,33.09
2023-05-09T19:51:57.221Z,32.92
2023-05-09T19:54:00.483Z,33.47
2023-05-09T19:56:04.416Z,33.53
2023-05-09T19:58:07.604Z,33.27
2023-05-09T20:00:20.852Z,33.37
2023-05-09T20:02:24.184Z,33.43
2023-05-09T20:04:27.360Z,33.71
2023-05-09T20:06:30.764Z,33.56
2023-05-09T20:08:34.140Z,33.73
2023-05-09T20:10:37.569Z,33.47
2023-05-09T20:12:41.251Z,33.67
2023-05-09T20:14:44.997Z,33.50
2023-05-09T20:16:49.561Z,33.66
2023-05-09T20:18:55.074Z,33.26
2023-05-09T20:20:58.293Z,33.52
2023-05-09T20:23:02.002Z,33.81
2023-05-09T20:25:05.797Z,33.82
2023-05-09T20:27:08.997Z,33.64
2023-05-09T20:29:12.286Z,33.93
2023-05-09T20:31:15.561Z,34.09
2023-05-09T20:33:20.207Z,33.87
2023-05-09T20:35:23.432Z,33.92
2023-05-09T20:37:26.782Z,33.88
2023-05-09T20:39:29.985Z,33.90
2023-05-09T20:41:34.924Z,33.88
2023-05-09T20:43:38.430Z,33.85
2023-05-09T20:45:43.997Z,34.09
2023-05-09T20:47:47.260Z,34.07
2023-05-09T20:49:51.986Z,34.15
2023-05-09T20:51:56.127Z,34.59
2023-05-09T20:53:59.331Z,34.41
2023-05-09T20:56:03.012Z,34.52
2023-05-09T20:58:06.761Z,34.17
2023-05-09T21:00:10.725Z,34.82
2023-05-09T21:02:13.947Z,34.63
2023-05-09T21:04:17.128Z,34.60
2023-05-09T21:06:22.119Z,34.77
2023-05-09T21:08:26.642Z,34.66
2023-05-09T21:10:29.871Z,35.16
2023-05-09T21:12:33.049Z,34.99
2023-05-09T21:14:36.301Z,35.55
2023-05-09T21:16:39.671Z,35.70
2023-05-09T21:18:42.951Z,35.61
2023-05-09T21:20:46.283Z,35.59
2023-05-09T21:22:50.867Z,35.24
2023-05-09T21:24:54.463Z,35.73
2023-05-09T21:26:57.633Z,35.71
2023-05-09T21:29:00.798Z,36.00
2023-05-09T21:31:03.997Z,35.96
2023-05-09T21:33:07.248Z,36.20
2023-05-09T21:35:12.867Z,36.42
2023-05-09T21:37:16.286Z,36.38
2023-05-09T21:39:20.915Z,36.35
2023-05-09T21:41:24.127Z,36.29
2023-05-09T21:43:28.621Z,36.57
2023-05-09T21:45:31.849Z,36.53
2023-05-09T21:47:35.268Z,36.81
2023-05-09T21:49:38.732Z,36.81
2023-05-09T21:51:41.890Z,37.01
2023-05-09T21:53:45.158Z,36.97
2023-05-09T21:55:50.963Z,36.93
2023-05-09T21:57:54.208Z,37.38
2023-05-09T22:00:01.259Z,37.26
2023-05-09T22:02:05.300Z,37.52
2023-05-09T22:04:08.598Z,37.82
2023-05-09T22:06:12.123Z,37.92
2023-05-09T22:08:15.348Z,37.87
2023-05-09T22:10:19.029Z,38.20
2023-05-09T22:12:24.147Z,38.17
2023-05-09T22:14:27.362Z,38.63
2023-05-09T22:16:30.846Z,38.35
2023-05-09T22:18:34.063Z,38.39
2023-05-09T22:20:37.208Z,38.42
2023-05-09T22:22:40.470Z,38.44
2023-05-09T22:24:43.778Z,38.50
2023-05-09T22:26:47.035Z,38.71
2023-05-09T22:28:51.668Z,38.58
2023-05-09T22:30:54.871Z,38.39
2023-05-09T22:32:58.885Z,38.11
2023-05-09T22:35:02.333Z,38.13
2023-05-09T22:37:05.594Z,38.30
2023-05-09T22:39:08.908Z,38.21
2023-05-09T22:41:12.445Z,38.27
2023-05-09T22:43:15.631Z,38.57
2023-05-09T22:45:20.543Z,38.47
2023-05-09T22:47:23.883Z,38.41
2023-05-09T22:49:27.077Z,38.64
2023-05-09T22:51:30.247Z,38.71
2023-05-09T22:53:33.843Z,38.54
2023-05-09T22:55:37.072Z,38.89
2023-05-09T22:57:41.629Z,38.90
2023-05-09T22:59:44.941Z,39.41
2023-05-09T23:01:49.496Z,39.16
2023-05-09T23:03:52.655Z,39.15
2023-05-09T23:05:55.841Z,39.42
2023-05-09T23:07:59.052Z,39.63
2023-05-09T23:10:02.247Z,39.87
2023-05-09T23:12:06.179Z,40.04
2023-05-09T23:14:09.690Z,40.06
2023-05-09T23:16:12.904Z,40.24
2023-05-09T23:18:17.493Z,40.20
2023-05-09T23:20:20.843Z,40.59
2023-05-09T23:22:24.228Z,40.90
2023-05-09T23:24:27.417Z,41.06
2023-05-09T23:26:39.436Z,41.15
2023-05-09T23:28:42.671Z,41.44
2023-05-09T23:30:45.855Z,41.63
2023-05-09T23:32:49.087Z,42.04
2023-05-09T23:34:53.661Z,42.21
2023-05-09T23:36:56.834Z,42.38
2023-05-09T23:39:00.033Z,42.74
2023-05-09T23:41:03.210Z,42.75
2023-05-09T23:43:06.626Z,43.07
2023-05-09T23:45:11.204Z,43.24
2023-05-09T23:47:14.573Z,43.38
2023-05-09T23:49:18.308Z,43.47
2023-05-09T23:51:22.966Z,43.70
2023-05-09T23:53:26.204Z,43.63
2023-05-09T23:55:29.434Z,43.90
2023-05-09T23:57:32.664Z,43.94
2023-05-09T23:59:35.980Z,43.95
